Time;durP1;ratioP1;P1;durP2;ratioP2;P2;SDS_P1;SDS_P2;PMS_P1;PMS_P2;Temp;Humidity;BMP_temperature;BMP_pressure;BME280_temperature;BME280_humidity;BME280_pressure;Samples;Min_cycle;Max_cycle;Signal;HPM_P1;HPM_P2
2024/03/12 00:01:08;;;;;;;;;;;;;;;9.65;71.34;94082.06;4207745;28;19932;-69
2024/03/12 00:03:11;;;;;;;;;;;;;;;9.61;70.63;94078.13;4205376;28;19923;-68
2024/03/12 00:05:13;;;;;;;;;;;;;;;9.57;71.73;94082.91;4212682;28;19919;-68
2024/03/12 00:07:16;;;;;;;;;;;;;;;9.58;72.25;94088.94;4212083;28;19924;-69
2024/03/12 00:09:19;;;;;;;;;;;;;;;9.62;72.97;94090.25;4208416;28;19930;-67
2024/03/12 00:11:23;;;;;;;;;;;;;;;9.67;72.79;94097.59;4204550;28;19969;-69
2024/03/12 00:13:26;;;;;;;;;;;;;;;9.55;72.71;94095.34;4205039;28;20018;-67
2024/03/12 00:15:28;;;;;;;;;;;;;;;9.42;73.04;94101.09;4206724;28;19920;-69
2024/03/12 00:17:30;;;;;;;;;;;;;;;9.53;72.45;94088.63;4199522;28;19921;-68
2024/03/12 00:19:33;;;;;;;;;;;;;;;9.53;72.58;94091.22;4201885;28;20026;-69
2024/03/12 00:21:37;;;;;;;;;;;;;;;9.51;72.78;94095.84;4211998;28;19997;-69
2024/03/12 00:23:41;;;;;;;;;;;;;;;9.49;73.08;94105.66;4210392;28;19950;-70
2024/03/12 00:25:43;;;;;;;;;;;;;;;9.37;72.61;94111.19;4203618;28;19920;-68
2024/03/12 00:27:45;;;;;;;;;;;;;;;9.37;73.21;94100.75;4216566;28;19920;-71
2024/03/12 00:29:46;;;;;;;;;;;;;;;9.34;73.55;94093.25;4200850;28;20346;-69
2024/03/12 00:31:49;;;;;;;;;;;;;;;9.32;73.50;94086.56;4207031;28;20410;-69
2024/03/12 00:33:50;;;;;;;;;;;;;;;9.30;72.98;94067.63;4204266;28;20259;-71
2024/03/12 00:35:53;;;;;;;;;;;;;;;9.39;72.42;94049.13;4205623;28;19924;-69
2024/03/12 00:37:57;;;;;;;;;;;;;;;9.47;72.83;94052.72;4208195;28;20008;-72
2024/03/12 00:39:59;;;;;;;;;;;;;;;9.57;73.58;94058.53;4201744;28;20100;-69
2024/03/12 00:42:02;;;;;;;;;;;;;;;9.69;73.53;94059.00;4202842;28;20227;-69
2024/03/12 00:44:05;;;;;;;;;;;;;;;9.75;73.55;94053.91;4204754;28;20302;-71
2024/03/12 00:46:09;;;;;;;;;;;;;;;9.76;73.23;94055.53;4207892;28;19923;-69
2024/03/12 00:48:12;;;;;;;;;;;;;;;9.75;73.24;94064.38;4197360;28;20000;-67
2024/03/12 00:50:16;;;;;;;;;;;;;;;9.70;73.00;94053.63;4203330;28;19935;-70
2024/03/12 00:52:17;;;;;;;;;;;;;;;9.78;73.07;94048.31;4198212;28;20034;-71
2024/03/12 00:54:19;;;;;;;;;;;;;;;9.66;73.15;94041.03;4203130;28;20532;-69
2024/03/12 00:56:21;;;;;;;;;;;;;;;9.70;73.98;94034.47;4208413;28;19920;-69
2024/03/12 00:58:23;;;;;;;;;;;;;;;9.75;74.34;94040.84;4198213;28;20366;-70
2024/03/12 01:00:25;;;;;;;;;;;;;;;9.79;73.91;94021.19;4209201;28;20648;-71
2024/03/12 01:02:30;;;;;;;;;;;;;;;9.90;74.85;94013.97;4201825;28;20166;-70
2024/03/12 01:04:32;;;;;;;;;;;;;;;9.97;74.90;94012.28;4210358;28;19923;-69
2024/03/12 01:06:34;;;;;;;;;;;;;;;10.02;74.83;94020.41;4197419;28;19924;-69
2024/03/12 01:08:36;;;;;;;;;;;;;;;10.06;74.69;94016.47;4210433;28;19919;-71
2024/03/12 01:10:39;;;;;;;;;;;;;;;10.09;75.21;94000.44;4211542;28;19924;-69
2024/03/12 01:12:41;;;;;;;;;;;;;;;10.10;75.43;93983.72;4203687;28;20374;-70
2024/03/12 01:14:44;;;;;;;;;;;;;;;10.12;75.49;93973.91;4210462;28;21413;-69
2024/03/12 01:16:46;;;;;;;;;;;;;;;10.13;75.39;93985.19;4200981;28;20469;-68
2024/03/12 01:18:48;;;;;;;;;;;;;;;10.14;74.99;93978.97;4203142;28;19935;-69
2024/03/12 01:20:50;;;;;;;;;;;;;;;10.13;74.99;93974.72;4205119;28;19982;-70
2024/03/12 01:22:53;;;;;;;;;;;;;;;10.08;74.83;93985.72;4209823;28;19924;-69
2024/03/12 01:24:56;;;;;;;;;;;;;;;9.94;74.56;93976.81;4209888;28;20405;-68
2024/03/12 01:26:58;;;;;;;;;;;;;;;9.92;74.73;93981.41;4210329;28;20345;-69
2024/03/12 01:29:03;;;;;;;;;;;;;;;9.97;75.39;93980.88;4196159;28;19920;-70
2024/03/12 01:31:05;;;;;;;;;;;;;;;9.91;74.95;93969.28;4209834;28;19935;-70
2024/03/12 01:33:07;;;;;;;;;;;;;;;9.91;75.16;93971.91;4202446;28;19923;-69
2024/03/12 01:35:12;;;;;;;;;;;;;;;9.91;74.91;93973.72;4213599;28;20143;-71
2024/03/12 01:37:15;;;;;;;;;;;;;;;9.83;75.65;93953.66;4199353;28;19920;-67
2024/03/12 01:39:24;;;;;;;;;;;;;;;9.83;75.63;93958.91;4198258;28;19928;-69
2024/03/12 01:41:26;;;;;;;;;;;;;;;9.78;75.36;93963.81;4207815;28;20420;-70
2024/03/12 01:43:28;;;;;;;;;;;;;;;9.75;74.92;93974.63;4206081;28;20256;-69
2024/03/12 01:45:30;;;;;;;;;;;;;;;9.75;75.19;93972.03;4205455;28;19924;-67
2024/03/12 01:47:33;;;;;;;;;;;;;;;9.76;75.34;93968.41;4205135;28;20015;-69
2024/03/12 01:49:35;;;;;;;;;;;;;;;9.78;75.19;93956.78;4185647;28;19924;-69
2024/03/12 01:51:37;;;;;;;;;;;;;;;9.80;75.57;93956.59;4202225;28;19943;-71
2024/03/12 01:53:40;;;;;;;;;;;;;;;9.83;75.69;93943.19;4207674;28;19966;-70
2024/03/12 01:55:44;;;;;;;;;;;;;;;9.81;75.07;93938.13;4205928;28;19926;-68
2024/03/12 01:57:47;;;;;;;;;;;;;;;9.52;74.00;93922.28;4195019;28;19932;-70
2024/03/12 01:59:50;;;;;;;;;;;;;;;9.24;75.45;93909.66;4198708;28;19924;-68
2024/03/12 02:02:01;;;;;;;;;;;;;;;9.11;75.65;93909.41;4201875;28;19993;-69
2024/03/12 02:04:04;;;;;;;;;;;;;;;9.13;76.67;93899.59;4206216;28;19970;-69
2024/03/12 02:06:07;;;;;;;;;;;;;;;8.96;76.98;93907.47;4210059;28;20110;-71
2024/03/12 02:08:09;;;;;;;;;;;;;;;9.02;77.19;93901.59;4208957;28;19928;-69
2024/03/12 02:10:11;;;;;;;;;;;;;;;9.16;76.39;93900.06;4191456;28;19947;-69
2024/03/12 02:12:13;;;;;;;;;;;;;;;9.19;76.35;93891.88;4208086;28;19981;-70
2024/03/12 02:14:16;;;;;;;;;;;;;;;9.15;75.73;93879.34;4203903;28;20220;-69
2024/03/12 02:16:18;;;;;;;;;;;;;;;8.78;75.61;93872.94;4208376;28;19927;-69
2024/03/12 02:18:20;;;;;;;;;;;;;;;8.63;76.77;93870.22;4205146;28;19967;-69
2024/03/12 02:20:22;;;;;;;;;;;;;;;8.54;76.42;93877.25;4203661;28;19932;-69
2024/03/12 02:22:25;;;;;;;;;;;;;;;8.55;76.40;93881.47;4209158;28;20216;-69
2024/03/12 02:24:28;;;;;;;;;;;;;;;8.65;77.09;93891.75;4208688;28;20167;-71
2024/03/12 02:26:31;;;;;;;;;;;;;;;8.73;77.36;93904.78;4196902;28;19920;-69
2024/03/12 02:28:33;;;;;;;;;;;;;;;8.44;76.53;93904.53;4199006;28;19920;-71
2024/03/12 02:30:35;;;;;;;;;;;;;;;8.42;76.89;93898.66;4210550;28;19973;-70
2024/03/12 02:32:38;;;;;;;;;;;;;;;8.39;77.17;93891.94;4189301;28;20018;-69
2024/03/12 02:34:40;;;;;;;;;;;;;;;8.46;77.55;93887.72;4206498;28;19981;-69
2024/03/12 02:36:41;;;;;;;;;;;;;;;8.34;77.42;93892.41;4208180;28;19942;-69
2024/03/12 02:38:43;;;;;;;;;;;;;;;8.31;77.87;93895.34;4206151;28;20371;-69
2024/03/12 02:40:45;;;;;;;;;;;;;;;8.15;78.08;93890.13;4207602;28;19928;-68
2024/03/12 02:42:47;;;;;;;;;;;;;;;8.23;78.63;93890.13;4209625;28;19920;-69
2024/03/12 02:44:49;;;;;;;;;;;;;;;7.96;79.93;93896.53;4204873;28;20011;-69
2024/03/12 02:46:52;;;;;;;;;;;;;;;7.77;80.29;93900.25;4207622;28;20018;-69
2024/03/12 02:48:54;;;;;;;;;;;;;;;7.70;81.74;93905.31;4204627;28;19921;-69
2024/03/12 02:50:56;;;;;;;;;;;;;;;7.58;82.69;93910.00;4208519;28;19920;-69
2024/03/12 02:52:58;;;;;;;;;;;;;;;7.59;83.43;93919.47;4202243;28;19936;-69
2024/03/12 02:55:00;;;;;;;;;;;;;;;7.63;82.94;93932.16;4204848;28;19962;-70
2024/03/12 02:57:02;;;;;;;;;;;;;;;7.84;83.69;93942.16;4178994;28;19964;-71
2024/03/12 02:59:04;;;;;;;;;;;;;;;8.12;83.23;93932.22;4213398;28;19977;-68
2024/03/12 03:01:06;;;;;;;;;;;;;;;8.07;80.52;93924.88;4210191;28;19982;-68
2024/03/12 03:03:07;;;;;;;;;;;;;;;7.93;81.27;93936.75;4205883;28;19965;-69
2024/03/12 03:05:09;;;;;;;;;;;;;;;8.05;82.11;93937.28;4206011;28;19932;-68
2024/03/12 03:07:12;;;;;;;;;;;;;;;8.24;81.86;93935.31;4194139;28;19920;-68
2024/03/12 03:09:14;;;;;;;;;;;;;;;8.43;82.18;93936.81;4192046;28;20014;-69
2024/03/12 03:11:15;;;;;;;;;;;;;;;8.58;81.14;93930.75;4211187;28;20331;-69
2024/03/12 03:13:17;;;;;;;;;;;;;;;8.71;80.74;93932.03;4204955;28;20500;-70
2024/03/12 03:15:20;;;;;;;;;;;;;;;8.78;80.25;93927.78;4216378;28;20043;-68
2024/03/12 03:17:22;;;;;;;;;;;;;;;8.82;79.86;93923.88;4210378;28;20007;-69
2024/03/12 03:19:24;;;;;;;;;;;;;;;8.84;79.43;93932.34;4208070;28;19999;-71
2024/03/12 03:21:25;;;;;;;;;;;;;;;8.87;79.75;93932.00;4206458;28;19926;-67
2024/03/12 03:23:28;;;;;;;;;;;;;;;8.82;80.11;93923.88;4209956;28;19927;-70
2024/03/12 03:25:29;;;;;;;;;;;;;;;8.58;80.79;93925.53;4203781;28;19924;-69
2024/03/12 03:27:31;;;;;;;;;;;;;;;8.65;80.16;93922.25;4184127;28;19921;-69
2024/03/12 03:29:33;;;;;;;;;;;;;;;8.62;80.80;93933.84;4212167;28;19934;-69
2024/03/12 03:31:35;;;;;;;;;;;;;;;8.58;80.30;93940.38;4211796;28;20350;-70
2024/03/12 03:33:43;;;;;;;;;;;;;;;8.58;80.46;93937.75;4203153;28;19928;-69
2024/03/12 03:35:45;;;;;;;;;;;;;;;8.67;80.96;93941.16;4172064;28;19991;-70
2024/03/12 03:37:46;;;;;;;;;;;;;;;8.71;80.58;93951.16;4194339;28;20346;-68
2024/03/12 03:39:49;;;;;;;;;;;;;;;8.77;80.81;93945.22;4202290;28;19994;-68
2024/03/12 03:41:51;;;;;;;;;;;;;;;8.82;80.39;93944.75;4199942;28;19972;-68
2024/03/12 03:43:53;;;;;;;;;;;;;;;8.91;80.03;93950.78;4199723;28;19927;-69
2024/03/12 03:45:55;;;;;;;;;;;;;;;8.93;79.58;93951.44;4205961;28;19920;-70
2024/03/12 03:47:57;;;;;;;;;;;;;;;8.93;79.39;93954.03;4212024;28;19973;-69
2024/03/12 03:49:59;;;;;;;;;;;;;;;8.92;79.30;93945.38;4208893;28;20392;-68
2024/03/12 03:52:01;;;;;;;;;;;;;;;8.85;79.26;93957.47;4212106;28;20247;-69
2024/03/12 03:54:03;;;;;;;;;;;;;;;8.83;79.78;93956.81;4210635;28;19920;-69
2024/03/12 03:56:11;;;;;;;;;;;;;;;8.88;79.48;93953.72;4203180;28;20002;-69
2024/03/12 03:58:13;;;;;;;;;;;;;;;8.80;79.37;93951.94;4213019;28;20415;-70
2024/03/12 04:00:15;;;;;;;;;;;;;;;8.74;79.40;93945.56;4210533;28;20367;-69
2024/03/12 04:02:18;;;;;;;;;;;;;;;8.15;80.94;93953.59;4216293;28;19928;-69
2024/03/12 04:04:20;;;;;;;;;;;;;;;8.05;82.53;93937.28;4207158;28;20027;-69
2024/03/12 04:06:23;;;;;;;;;;;;;;;7.75;83.85;93944.72;4210845;28;19926;-70
2024/03/12 04:08:25;;;;;;;;;;;;;;;7.62;84.77;93944.38;4213960;28;19920;-70
2024/03/12 04:10:27;;;;;;;;;;;;;;;7.81;85.29;93940.69;4202602;28;19926;-68
2024/03/12 04:12:29;;;;;;;;;;;;;;;7.66;84.89;93939.66;4190855;28;20247;-68
2024/03/12 04:14:31;;;;;;;;;;;;;;;7.47;85.81;93941.56;4211809;28;19957;-69
2024/03/12 04:16:32;;;;;;;;;;;;;;;7.54;86.13;93939.16;4212673;28;19977;-69
2024/03/12 04:18:34;;;;;;;;;;;;;;;7.55;85.47;93936.38;4208885;28;19938;-68
2024/03/12 04:20:38;;;;;;;;;;;;;;;7.76;86.03;93935.91;4211198;28;20459;-69
2024/03/12 04:22:40;;;;;;;;;;;;;;;7.96;85.90;93941.66;4208982;28;19987;-68
2024/03/12 04:24:43;;;;;;;;;;;;;;;8.16;85.87;93933.53;4207984;28;19920;-70
2024/03/12 04:26:45;;;;;;;;;;;;;;;8.30;84.51;93939.88;4208188;28;20244;-68
2024/03/12 04:28:47;;;;;;;;;;;;;;;8.37;83.51;93935.66;4211486;28;19951;-69
2024/03/12 04:30:49;;;;;;;;;;;;;;;8.48;83.31;93930.13;4207214;28;19921;-71
2024/03/12 04:32:51;;;;;;;;;;;;;;;8.57;82.67;93933.53;4188658;28;19925;-70
2024/03/12 04:34:53;;;;;;;;;;;;;;;8.63;82.28;93929.47;4205090;28;19978;-72
2024/03/12 04:36:56;;;;;;;;;;;;;;;8.67;81.62;93931.56;4201189;28;19927;-70
2024/03/12 04:38:58;;;;;;;;;;;;;;;8.70;81.13;93935.63;4208786;28;19920;-70
2024/03/12 04:41:00;;;;;;;;;;;;;;;8.70;80.86;93923.38;4210203;28;19967;-71
2024/03/12 04:43:02;;;;;;;;;;;;;;;8.72;80.64;93929.25;4198454;28;20349;-68
2024/03/12 04:45:05;;;;;;;;;;;;;;;8.78;80.02;93925.97;4202682;28;20313;-70
2024/03/12 04:47:07;;;;;;;;;;;;;;;8.84;80.02;93919.28;4202928;28;20339;-70
2024/03/12 04:49:08;;;;;;;;;;;;;;;8.87;79.40;93921.56;4204684;28;19920;-70
2024/03/12 04:51:10;;;;;;;;;;;;;;;8.88;79.73;93920.56;4194039;28;20362;-68
2024/03/12 04:53:12;;;;;;;;;;;;;;;8.90;79.31;93925.63;4198733;28;19951;-68
2024/03/12 04:55:14;;;;;;;;;;;;;;;8.89;78.99;93922.19;4207846;28;19931;-67
2024/03/12 04:57:16;;;;;;;;;;;;;;;8.91;78.67;93922.03;4208656;28;20015;-70
2024/03/12 04:59:18;;;;;;;;;;;;;;;8.90;79.39;93923.00;4213081;28;20376;-69
2024/03/12 05:01:20;;;;;;;;;;;;;;;8.95;78.75;93911.09;4203729;28;19951;-70
2024/03/12 05:03:22;;;;;;;;;;;;;;;8.95;78.86;93918.13;4211897;28;19928;-70
2024/03/12 05:05:23;;;;;;;;;;;;;;;8.95;78.85;93923.34;4210975;28;19924;-71
2024/03/12 05:07:25;;;;;;;;;;;;;;;8.98;78.57;93917.75;4207841;28;19924;-70
2024/03/12 05:09:28;;;;;;;;;;;;;;;8.99;78.57;93927.22;4218362;28;19927;-69
2024/03/12 05:11:29;;;;;;;;;;;;;;;9.06;77.99;93930.81;4203618;28;19920;-72
2024/03/12 05:13:31;;;;;;;;;;;;;;;9.07;78.62;93932.41;4190420;28;19977;-71
2024/03/12 05:15:33;;;;;;;;;;;;;;;9.10;78.34;93928.66;4209554;28;20369;-69
2024/03/12 05:17:36;;;;;;;;;;;;;;;9.12;77.78;93921.47;4194708;28;19924;-69
2024/03/12 05:19:37;;;;;;;;;;;;;;;9.15;77.82;93924.56;4211509;28;20322;-70
2024/03/12 05:21:39;;;;;;;;;;;;;;;9.17;77.72;93917.38;4208109;28;19954;-71
2024/03/12 05:23:41;;;;;;;;;;;;;;;9.21;77.25;93923.09;4207191;28;20368;-70
2024/03/12 05:25:46;;;;;;;;;;;;;;;9.28;76.97;93924.03;4206563;28;19924;-70
2024/03/12 05:27:47;;;;;;;;;;;;;;;9.33;76.83;93933.97;4204073;28;19940;-71
2024/03/12 05:29:53;;;;;;;;;;;;;;;9.34;76.27;93931.19;4208875;28;19977;-71
2024/03/12 05:31:55;;;;;;;;;;;;;;;9.35;76.19;93937.22;4199785;28;19924;-69
2024/03/12 05:33:58;;;;;;;;;;;;;;;9.37;75.95;93941.28;4208170;28;20366;-71
2024/03/12 05:36:09;;;;;;;;;;;;;;;9.41;76.51;93942.59;4179611;28;19984;-72
2024/03/12 05:38:11;;;;;;;;;;;;;;;9.46;76.65;93938.66;4195078;28;20406;-71
2024/03/12 05:40:17;;;;;;;;;;;;;;;9.46;76.28;93936.03;4209487;28;19919;-71
2024/03/12 05:49:19;;;;;;;;;;;;;;;9.39;76.62;93938.50;4205739;28;20281;-68
2024/03/12 05:51:21;;;;;;;;;;;;;;;9.38;76.54;93942.13;4209669;28;19935;-71
2024/03/12 05:53:24;;;;;;;;;;;;;;;9.41;76.47;93942.59;4213751;28;19934;-70
2024/03/12 05:55:25;;;;;;;;;;;;;;;9.46;76.10;93947.28;4200418;28;19921;-70
2024/03/12 05:57:28;;;;;;;;;;;;;;;9.56;75.96;93954.94;4203700;28;20421;-70
2024/03/12 05:59:30;;;;;;;;;;;;;;;9.64;75.62;93949.69;4209013;28;19928;-70
2024/03/12 06:01:32;;;;;;;;;;;;;;;9.71;75.80;93955.03;4210589;28;19935;-73
2024/03/12 06:03:38;;;;;;;;;;;;;;;9.74;75.06;93955.47;4210852;28;19920;-71
2024/03/12 06:05:41;;;;;;;;;;;;;;;9.80;75.29;93949.56;4173831;28;19971;-71
2024/03/12 06:07:52;;;;;;;;;;;;;;;9.82;75.09;93952.84;4206691;28;19963;-72
2024/03/12 06:09:54;;;;;;;;;;;;;;;9.87;74.27;93957.53;4189607;28;19920;-70
2024/03/12 06:11:56;;;;;;;;;;;;;;;10.02;74.87;93947.97;4203192;28;19997;-71
2024/03/12 06:13:58;;;;;;;;;;;;;;;10.16;74.25;93945.59;4193475;28;19924;-70
2024/03/12 06:16:07;;;;;;;;;;;;;;;10.09;73.34;93953.34;4191523;28;20448;-71
2024/03/12 06:18:09;;;;;;;;;;;;;;;10.23;73.91;93947.31;4184100;28;20012;-72
2024/03/12 06:20:12;;;;;;;;;;;;;;;10.40;73.92;93952.47;4211200;28;19923;-71
2024/03/12 06:22:14;;;;;;;;;;;;;;;10.63;73.75;93952.44;4207596;28;20010;-69
2024/03/12 06:24:16;;;;;;;;;;;;;;;10.54;71.41;93951.72;4204975;28;19960;-70
2024/03/12 06:26:18;;;;;;;;;;;;;;;10.21;72.51;93951.09;4206047;28;19959;-70
2024/03/12 06:28:21;;;;;;;;;;;;;;;10.11;72.38;93951.34;4217544;28;19935;-71
2024/03/12 06:30:23;;;;;;;;;;;;;;;10.12;72.85;93952.16;4209667;28;19924;-70
2024/03/12 06:32:31;;;;;;;;;;;;;;;10.15;72.77;93957.88;4215261;28;19951;-73
2024/03/12 06:34:33;;;;;;;;;;;;;;;10.13;72.61;93957.22;4192857;28;20016;-71
2024/03/12 06:36:34;;;;;;;;;;;;;;;10.17;72.75;93953.25;4199782;28;19973;-72
2024/03/12 06:38:36;;;;;;;;;;;;;;;10.35;72.78;93954.81;4208117;28;19943;-69
2024/03/12 06:40:39;;;;;;;;;;;;;;;10.43;72.18;93952.09;4202486;28;19977;-70
2024/03/12 06:42:41;;;;;;;;;;;;;;;10.56;71.86;93954.97;4209300;28;20302;-71
2024/03/12 06:44:43;;;;;;;;;;;;;;;10.72;71.73;93959.22;4187708;28;19968;-72
2024/03/12 06:46:45;;;;;;;;;;;;;;;10.78;71.15;93957.72;4202066;28;19920;-70
2024/03/12 06:48:47;;;;;;;;;;;;;;;10.79;70.53;93959.34;4196164;28;20259;-69
2024/03/12 06:50:50;;;;;;;;;;;;;;;10.89;70.33;93964.31;4210293;28;20344;-72
2024/03/12 06:52:53;;;;;;;;;;;;;;;10.95;69.00;93963.59;4198776;28;20588;-70
2024/03/12 06:54:55;;;;;;;;;;;;;;;10.66;69.29;93965.19;4206715;28;20278;-72
2024/03/12 06:56:56;;;;;;;;;;;;;;;10.62;70.75;93972.56;4206937;28;20305;-72
2024/03/12 06:58:59;;;;;;;;;;;;;;;10.71;70.71;93973.34;4209504;28;19931;-72
2024/03/12 07:01:00;;;;;;;;;;;;;;;10.78;70.22;93969.00;4191093;28;19951;-70
2024/03/12 07:03:06;;;;;;;;;;;;;;;10.79;70.14;93967.19;4185963;28;20058;-70
2024/03/12 07:05:09;;;;;;;;;;;;;;;10.74;70.17;93967.72;4203997;28;19920;-71
2024/03/12 07:07:13;;;;;;;;;;;;;;;10.67;70.18;93977.31;4208115;28;19947;-71
2024/03/12 07:09:23;;;;;;;;;;;;;;;10.52;70.15;93973.81;4209337;28;19920;-71
2024/03/12 07:11:25;;;;;;;;;;;;;;;10.44;70.66;93972.09;4208365;28;19927;-71
2024/03/12 07:13:27;;;;;;;;;;;;;;;10.44;71.32;93970.28;4205206;28;19924;-71
2024/03/12 07:15:31;;;;;;;;;;;;;;;10.22;70.92;93974.50;4199336;28;19924;-71
2024/03/12 07:17:33;;;;;;;;;;;;;;;10.16;71.25;93975.19;4203257;28;19921;-69
2024/03/12 07:19:35;;;;;;;;;;;;;;;10.34;71.61;93972.31;4198041;28;19936;-69
2024/03/12 07:21:38;;;;;;;;;;;;;;;10.52;71.42;93968.56;4196978;28;20317;-71
2024/03/12 07:23:40;;;;;;;;;;;;;;;10.62;70.09;93972.56;4207154;28;19932;-69
2024/03/12 07:25:43;;;;;;;;;;;;;;;10.81;70.01;93971.25;4198284;28;20461;-71
2024/03/12 07:27:45;;;;;;;;;;;;;;;10.84;69.19;93968.28;4195275;28;20099;-72
2024/03/12 07:29:47;;;;;;;;;;;;;;;10.78;69.25;93974.25;4195371;28;19932;-71
2024/03/12 07:31:49;;;;;;;;;;;;;;;10.77;69.09;93971.78;4198472;28;19935;-70
2024/03/12 07:33:51;;;;;;;;;;;;;;;10.56;69.27;93973.31;4195902;28;20014;-72
2024/03/12 07:35:53;;;;;;;;;;;;;;;10.63;69.54;93981.25;4204913;28;19951;-70
2024/03/12 07:37:55;;;;;;;;;;;;;;;10.41;69.79;93975.03;4207669;28;20015;-69
2024/03/12 07:39:57;;;;;;;;;;;;;;;10.39;69.86;93974.41;4204320;28;19927;-68
2024/03/12 07:41:59;;;;;;;;;;;;;;;10.50;70.68;93960.91;4203322;28;19927;-71
2024/03/12 07:44:01;;;;;;;;;;;;;;;10.63;69.51;93965.53;4206627;28;19988;-72
2024/03/12 07:46:03;;;;;;;;;;;;;;;10.52;69.67;93971.19;4210310;28;19920;-71
2024/03/12 07:48:05;;;;;;;;;;;;;;;10.59;70.54;93970.31;4211685;28;19923;-72
2024/03/12 07:50:08;;;;;;;;;;;;;;;10.74;69.78;93974.78;4214639;28;19927;-73
2024/03/12 07:52:11;;;;;;;;;;;;;;;10.71;69.37;93985.59;4203378;28;19920;-72
2024/03/12 07:54:13;;;;;;;;;;;;;;;10.56;69.48;93983.78;4206831;28;19931;-71
2024/03/12 07:56:15;;;;;;;;;;;;;;;10.24;70.98;93984.81;4210698;28;19943;-74
2024/03/12 07:58:17;;;;;;;;;;;;;;;9.98;71.57;93985.94;4209935;28;20010;-73
2024/03/12 08:00:19;;;;;;;;;;;;;;;10.06;71.28;93985.06;4213801;28;19985;-71
2024/03/12 08:02:22;;;;;;;;;;;;;;;9.99;71.70;93981.53;4180667;28;20358;-71
2024/03/12 08:04:26;;;;;;;;;;;;;;;9.97;72.54;93981.69;4206807;28;19940;-74
2024/03/12 08:06:28;;;;;;;;;;;;;;;10.01;72.09;93988.22;4205880;28;19927;-71
2024/03/12 08:08:30;;;;;;;;;;;;;;;10.32;71.82;93984.75;4210278;28;19924;-70
2024/03/12 08:10:31;;;;;;;;;;;;;;;10.63;71.50;93982.06;4210908;28;19924;-72
2024/03/12 08:12:33;;;;;;;;;;;;;;;11.01;70.04;93976.81;4200102;28;20016;-72
2024/03/12 08:14:35;;;;;;;;;;;;;;;11.27;68.65;93970.28;4217919;28;20392;-69
2024/03/12 08:16:37;;;;;;;;;;;;;;;11.57;67.93;93972.91;4198264;28;19943;-71
2024/03/12 08:18:41;;;;;;;;;;;;;;;11.73;66.99;93972.72;4210778;28;20366;-70
2024/03/12 08:20:45;;;;;;;;;;;;;;;11.80;66.37;93963.09;4211937;28;20019;-71
2024/03/12 08:22:47;;;;;;;;;;;;;;;11.80;65.38;93964.91;4215976;28;20343;-69
2024/03/12 08:24:50;;;;;;;;;;;;;;;11.81;65.93;93964.75;4207555;28;19932;-71
2024/03/12 08:26:52;;;;;;;;;;;;;;;11.92;66.40;93960.03;4211351;28;20294;-69
2024/03/12 08:28:57;;;;;;;;;;;;;;;12.08;65.43;93960.59;4194771;28;20325;-71
2024/03/12 08:30:59;;;;;;;;;;;;;;;12.36;65.25;93961.69;4209221;28;19920;-72
2024/03/12 08:33:12;;;;;;;;;;;;;;;12.53;64.30;93963.06;4201796;28;20436;-71
2024/03/12 08:35:13;;;;;;;;;;;;;;;12.64;63.71;93959.09;4187858;28;20063;-70
2024/03/12 08:37:15;;;;;;;;;;;;;;;12.38;64.27;93965.75;4203438;28;20101;-72
2024/03/12 08:39:17;;;;;;;;;;;;;;;12.13;65.45;93977.63;4207924;28;19920;-72
2024/03/12 08:41:20;;;;;;;;;;;;;;;11.87;65.09;93977.13;4208992;28;19924;-72
2024/03/12 08:43:21;;;;;;;;;;;;;;;11.69;65.98;93974.88;4208925;28;19930;-69
2024/03/12 08:45:23;;;;;;;;;;;;;;;11.16;68.44;93981.25;4213164;28;19920;-70
2024/03/12 08:47:27;;;;;;;;;;;;;;;11.27;68.50;93976.38;4201527;28;20015;-73
2024/03/12 08:49:29;;;;;;;;;;;;;;;11.44;68.71;93979.63;4187900;28;19924;-71
2024/03/12 08:51:33;;;;;;;;;;;;;;;11.61;68.27;93976.78;4202010;28;20469;-71
2024/03/12 08:53:36;;;;;;;;;;;;;;;11.81;67.83;93983.09;4205502;28;19920;-71
2024/03/12 08:55:38;;;;;;;;;;;;;;;12.03;67.51;93978.75;4205405;28;20370;-69
2024/03/12 08:57:39;;;;;;;;;;;;;;;12.19;66.63;93982.13;4196927;28;19920;-72
2024/03/12 08:59:41;;;;;;;;;;;;;;;12.30;65.72;93984.25;4198699;28;20365;-68
2024/03/12 09:01:43;;;;;;;;;;;;;;;12.43;65.49;93973.91;4185998;28;20370;-71
2024/03/12 09:03:46;;;;;;;;;;;;;;;12.63;64.65;93963.56;4206495;28;19939;-71
2024/03/12 09:05:48;;;;;;;;;;;;;;;12.75;64.39;93963.03;4213436;28;19920;-71
2024/03/12 09:07:50;;;;;;;;;;;;;;;12.87;63.79;93969.41;4193814;28;20030;-71
2024/03/12 09:09:51;;;;;;;;;;;;;;;13.00;63.11;93966.88;4204666;28;19925;-71
2024/03/12 09:11:55;;;;;;;;;;;;;;;13.14;63.09;93948.53;4208356;28;19931;-70
2024/03/12 09:13:57;;;;;;;;;;;;;;;13.37;62.89;93956.19;4208133;28;19920;-71
2024/03/12 09:15:59;;;;;;;;;;;;;;;13.56;63.04;93954.69;4208941;28;19967;-70
2024/03/12 09:18:04;;;;;;;;;;;;;;;13.67;62.02;93944.41;4193235;28;19943;-69
2024/03/12 09:20:10;;;;;;;;;;;;;;;13.72;60.90;93946.44;4206928;28;20266;-69
2024/03/12 09:22:12;;;;;;;;;;;;;;;13.66;61.64;93957.78;4185072;28;19971;-71
2024/03/12 09:24:15;;;;;;;;;;;;;;;13.79;61.86;93947.28;4215093;28;19926;-72
2024/03/12 09:26:18;;;;;;;;;;;;;;;13.97;61.11;93953.81;4207045;28;19949;-71
2024/03/12 09:28:21;;;;;;;;;;;;;;;14.11;60.30;93956.31;4196788;28;19924;-72
2024/03/12 09:30:26;;;;;;;;;;;;;;;14.41;60.17;93953.31;4221237;28;20003;-72
2024/03/12 09:32:29;;;;;;;;;;;;;;;14.64;59.06;93947.69;4209890;28;19959;-69
2024/03/12 09:34:33;;;;;;;;;;;;;;;14.74;57.92;93950.72;4216872;28;19924;-72
2024/03/12 09:36:35;;;;;;;;;;;;;;;14.81;58.12;93945.44;4203189;28;19943;-72
2024/03/12 09:38:36;;;;;;;;;;;;;;;14.84;57.21;93939.78;4214514;28;19923;-71
2024/03/12 09:40:42;;;;;;;;;;;;;;;14.86;57.30;93935.13;4215704;28;19954;-71
2024/03/12 09:42:49;;;;;;;;;;;;;;;14.86;57.96;93940.41;4212620;28;19932;-71
2024/03/12 09:44:51;;;;;;;;;;;;;;;14.92;58.13;93936.13;4170722;28;19980;-71
2024/03/12 09:46:54;;;;;;;;;;;;;;;15.01;58.12;93928.81;4212735;28;19931;-72
2024/03/12 09:48:56;;;;;;;;;;;;;;;15.15;57.53;93933.06;4194203;28;20039;-71
2024/03/12 09:50:59;;;;;;;;;;;;;;;15.31;57.02;93937.06;4204747;28;19920;-71
2024/03/12 09:53:02;;;;;;;;;;;;;;;15.39;56.39;93928.13;4194301;28;20010;-71
2024/03/12 09:55:06;;;;;;;;;;;;;;;15.50;56.00;93922.19;4197299;28;19920;-73
2024/03/12 09:57:11;;;;;;;;;;;;;;;15.49;55.76;93920.59;4178584;28;20381;-73
2024/03/12 09:59:13;;;;;;;;;;;;;;;15.68;56.17;93924.16;4193663;28;20119;-71
2024/03/12 10:01:15;;;;;;;;;;;;;;;15.85;54.78;93914.78;4199486;28;19919;-71
2024/03/12 10:03:18;;;;;;;;;;;;;;;15.82;52.84;93915.19;4206128;28;19997;-72
2024/03/12 10:05:23;;;;;;;;;;;;;;;15.67;50.69;93904.06;4188179;28;19924;-71
2024/03/12 10:07:25;;;;;;;;;;;;;;;15.55;50.50;93904.72;4205117;28;19920;-71
2024/03/12 10:09:30;;;;;;;;;;;;;;;15.49;50.34;93895.00;4194953;28;19924;-73
2024/03/12 10:11:33;;;;;;;;;;;;;;;15.51;50.71;93892.97;4190433;28;19943;-73
2024/03/12 10:13:36;;;;;;;;;;;;;;;15.56;50.57;93895.78;4207657;28;19957;-71
2024/03/12 10:15:38;;;;;;;;;;;;;;;15.57;49.52;93883.38;4206488;28;19942;-71
2024/03/12 10:17:39;;;;;;;;;;;;;;;15.39;48.30;93880.63;4187189;28;19927;-72
2024/03/12 10:19:47;;;;;;;;;;;;;;;15.14;48.68;93876.84;4205448;28;20061;-70
2024/03/12 10:21:49;;;;;;;;;;;;;;;15.06;49.11;93871.78;4183400;28;19999;-71
2024/03/12 10:23:51;;;;;;;;;;;;;;;14.99;49.13;93883.34;4208363;28;20461;-72
2024/03/12 10:25:55;;;;;;;;;;;;;;;14.91;49.08;93876.50;4181230;28;19920;-73
2024/03/12 10:27:57;;;;;;;;;;;;;;;14.81;48.47;93876.09;4188382;28;19927;-70
2024/03/12 10:30:23;;;;;;;;;;;;;;;14.65;48.31;93887.88;4204644;28;19920;-71
2024/03/12 10:32:25;;;;;;;;;;;;;;;14.42;48.57;93877.72;4200279;28;20079;-73
2024/03/12 10:34:27;;;;;;;;;;;;;;;14.36;48.58;93870.63;4197283;28;20022;-73
2024/03/12 10:36:30;;;;;;;;;;;;;;;14.31;48.76;93872.03;4214931;28;19990;-71
2024/03/12 10:38:35;;;;;;;;;;;;;;;14.27;49.36;93876.06;4196895;28;19920;-70
2024/03/12 10:40:38;;;;;;;;;;;;;;;14.36;48.88;93874.06;4213610;28;20324;-71
2024/03/12 10:42:51;;;;;;;;;;;;;;;14.28;49.30;93876.88;4188564;28;20426;-70
2024/03/12 10:44:53;;;;;;;;;;;;;;;14.46;51.56;93868.38;4191176;28;19979;-72
2024/03/12 10:46:58;;;;;;;;;;;;;;;14.52;53.75;93881.56;4205111;28;20027;-71
2024/03/12 10:49:00;;;;;;;;;;;;;;;14.65;53.75;93879.97;4208416;28;20351;-70
2024/03/12 10:51:03;;;;;;;;;;;;;;;14.81;52.94;93870.81;4197352;28;19938;-71